sensor_id;sensor_type;location;lat;lon;timestamp;P1;durP1;ratioP1;P2;durP2;ratioP2
76208;SDS011;64990;51.698;-0.292;2023-08-06T00:00:22;4.88;;;2.47;;
76208;SDS011;64990;51.698;-0.292;2023-08-06T00:02:48;5.95;;;2.97;;
76208;SDS011;64990;51.698;-0.292;2023-08-06T00:05:15;9.98;;;2.70;;
76208;SDS011;64990;51.698;-0.292;2023-08-06T00:07:46;6.85;;;2.38;;
76208;SDS011;64990;51.698;-0.292;2023-08-06T00:10:12;3.65;;;2.10;;
76208;SDS011;64990;51.698;-0.292;2023-08-06T00:12:38;11.13;;;2.92;;
76208;SDS011;64990;51.698;-0.292;2023-08-06T00:15:04;7.28;;;2.17;;
76208;SDS011;64990;51.698;-0.292;2023-08-06T00:17:30;8.00;;;2.05;;
76208;SDS011;64990;51.698;-0.292;2023-08-06T00:19:57;8.00;;;3.35;;
76208;SDS011;64990;51.698;-0.292;2023-08-06T00:22:23;2.75;;;2.30;;
76208;SDS011;64990;51.698;-0.292;2023-08-06T00:24:49;10.73;;;2.30;;
76208;SDS011;64990;51.698;-0.292;2023-08-06T00:27:15;6.05;;;2.15;;
76208;SDS011;64990;51.698;-0.292;2023-08-06T00:29:41;8.60;;;2.45;;
76208;SDS011;64990;51.698;-0.292;2023-08-06T00:32:07;6.28;;;2.58;;
76208;SDS011;64990;51.698;-0.292;2023-08-06T00:34:33;6.88;;;3.78;;
76208;SDS011;64990;51.698;-0.292;2023-08-06T00:36:59;15.32;;;2.65;;
76208;SDS011;64990;51.698;-0.292;2023-08-06T00:39:25;7.63;;;4.00;;
76208;SDS011;64990;51.698;-0.292;2023-08-06T00:41:50;6.28;;;3.60;;
76208;SDS011;64990;51.698;-0.292;2023-08-06T00:44:16;7.22;;;2.80;;
76208;SDS011;64990;51.698;-0.292;2023-08-06T00:46:45;8.68;;;3.17;;
76208;SDS011;64990;51.698;-0.292;2023-08-06T00:49:11;12.10;;;4.15;;
76208;SDS011;64990;51.698;-0.292;2023-08-06T00:51:37;10.13;;;3.60;;
76208;SDS011;64990;51.698;-0.292;2023-08-06T00:54:03;13.63;;;3.60;;
76208;SDS011;64990;51.698;-0.292;2023-08-06T00:56:29;12.70;;;3.60;;
76208;SDS011;64990;51.698;-0.292;2023-08-06T00:58:55;16.83;;;4.53;;
76208;SDS011;64990;51.698;-0.292;2023-08-06T01:01:22;10.80;;;4.75;;
76208;SDS011;64990;51.698;-0.292;2023-08-06T01:03:48;6.60;;;3.20;;
76208;SDS011;64990;51.698;-0.292;2023-08-06T01:06:15;10.60;;;3.83;;
76208;SDS011;64990;51.698;-0.292;2023-08-06T01:13:51;11.25;;;3.10;;
76208;SDS011;64990;51.698;-0.292;2023-08-06T01:16:20;9.52;;;3.92;;
76208;SDS011;64990;51.698;-0.292;2023-08-06T01:18:47;9.23;;;4.05;;
76208;SDS011;64990;51.698;-0.292;2023-08-06T01:21:14;21.60;;;5.07;;
76208;SDS011;64990;51.698;-0.292;2023-08-06T01:23:41;16.08;;;3.75;;
76208;SDS011;64990;51.698;-0.292;2023-08-06T01:29:10;7.40;;;3.35;;
76208;SDS011;64990;51.698;-0.292;2023-08-06T01:31:38;14.85;;;4.05;;
76208;SDS011;64990;51.698;-0.292;2023-08-06T01:34:06;8.32;;;3.53;;
76208;SDS011;64990;51.698;-0.292;2023-08-06T01:36:33;10.57;;;3.75;;
76208;SDS011;64990;51.698;-0.292;2023-08-06T01:38:59;7.53;;;3.53;;
76208;SDS011;64990;51.698;-0.292;2023-08-06T01:41:25;7.07;;;3.28;;
76208;SDS011;64990;51.698;-0.292;2023-08-06T01:43:51;8.93;;;3.17;;
76208;SDS011;64990;51.698;-0.292;2023-08-06T01:46:17;9.23;;;3.28;;
76208;SDS011;64990;51.698;-0.292;2023-08-06T01:48:43;12.93;;;4.82;;
76208;SDS011;64990;51.698;-0.292;2023-08-06T01:51:09;7.75;;;3.38;;
76208;SDS011;64990;51.698;-0.292;2023-08-06T01:53:35;24.70;;;3.95;;
76208;SDS011;64990;51.698;-0.292;2023-08-06T01:56:02;8.23;;;4.32;;
76208;SDS011;64990;51.698;-0.292;2023-08-06T01:58:28;9.68;;;3.80;;
76208;SDS011;64990;51.698;-0.292;2023-08-06T02:00:54;6.45;;;2.80;;
76208;SDS011;64990;51.698;-0.292;2023-08-06T02:03:20;8.23;;;3.92;;
76208;SDS011;64990;51.698;-0.292;2023-08-06T02:05:46;13.07;;;3.22;;
76208;SDS011;64990;51.698;-0.292;2023-08-06T02:08:12;19.10;;;4.93;;
76208;SDS011;64990;51.698;-0.292;2023-08-06T02:10:38;9.38;;;3.08;;
76208;SDS011;64990;51.698;-0.292;2023-08-06T02:13:04;7.97;;;2.95;;
76208;SDS011;64990;51.698;-0.292;2023-08-06T02:15:30;7.47;;;2.90;;
76208;SDS011;64990;51.698;-0.292;2023-08-06T02:17:56;13.30;;;4.25;;
76208;SDS011;64990;51.698;-0.292;2023-08-06T02:20:22;5.15;;;2.42;;
76208;SDS011;64990;51.698;-0.292;2023-08-06T02:22:48;15.32;;;3.92;;
76208;SDS011;64990;51.698;-0.292;2023-08-06T02:25:14;9.82;;;3.13;;
76208;SDS011;64990;51.698;-0.292;2023-08-06T02:27:40;5.18;;;2.85;;
76208;SDS011;64990;51.698;-0.292;2023-08-06T02:30:06;8.18;;;3.70;;
76208;SDS011;64990;51.698;-0.292;2023-08-06T02:32:32;13.15;;;3.75;;
76208;SDS011;64990;51.698;-0.292;2023-08-06T02:35:01;11.32;;;2.88;;
76208;SDS011;64990;51.698;-0.292;2023-08-06T02:37:27;10.63;;;4.63;;
76208;SDS011;64990;51.698;-0.292;2023-08-06T02:39:53;10.20;;;3.38;;
76208;SDS011;64990;51.698;-0.292;2023-08-06T02:42:19;7.15;;;3.92;;
76208;SDS011;64990;51.698;-0.292;2023-08-06T02:44:45;25.67;;;5.57;;
76208;SDS011;64990;51.698;-0.292;2023-08-06T02:47:11;8.93;;;2.75;;
76208;SDS011;64990;51.698;-0.292;2023-08-06T02:49:37;14.38;;;4.18;;
76208;SDS011;64990;51.698;-0.292;2023-08-06T02:52:03;9.27;;;3.25;;
76208;SDS011;64990;51.698;-0.292;2023-08-06T02:54:29;14.90;;;3.50;;
76208;SDS011;64990;51.698;-0.292;2023-08-06T02:56:56;11.40;;;4.00;;
76208;SDS011;64990;51.698;-0.292;2023-08-06T02:59:22;44.40;;;4.35;;
76208;SDS011;64990;51.698;-0.292;2023-08-06T03:01:48;8.57;;;4.15;;
76208;SDS011;64990;51.698;-0.292;2023-08-06T03:04:14;7.47;;;3.58;;
76208;SDS011;64990;51.698;-0.292;2023-08-06T03:06:40;13.32;;;4.25;;
76208;SDS011;64990;51.698;-0.292;2023-08-06T03:09:06;7.38;;;2.58;;
76208;SDS011;64990;51.698;-0.292;2023-08-06T03:11:32;6.38;;;3.05;;
76208;SDS011;64990;51.698;-0.292;2023-08-06T03:13:58;13.90;;;3.60;;
76208;SDS011;64990;51.698;-0.292;2023-08-06T03:16:24;4.75;;;2.75;;
76208;SDS011;64990;51.698;-0.292;2023-08-06T03:18:50;10.68;;;4.43;;
76208;SDS011;64990;51.698;-0.292;2023-08-06T03:21:16;9.02;;;2.85;;
76208;SDS011;64990;51.698;-0.292;2023-08-06T03:23:42;6.47;;;3.08;;
76208;SDS011;64990;51.698;-0.292;2023-08-06T03:26:08;7.78;;;3.88;;
76208;SDS011;64990;51.698;-0.292;2023-08-06T03:28:34;7.55;;;3.30;;
76208;SDS011;64990;51.698;-0.292;2023-08-06T03:31:03;7.25;;;2.88;;
76208;SDS011;64990;51.698;-0.292;2023-08-06T03:33:29;6.00;;;3.00;;
76208;SDS011;64990;51.698;-0.292;2023-08-06T03:35:55;11.02;;;4.13;;
76208;SDS011;64990;51.698;-0.292;2023-08-06T03:38:21;9.80;;;3.35;;
76208;SDS011;64990;51.698;-0.292;2023-08-06T03:40:48;12.02;;;4.15;;
76208;SDS011;64990;51.698;-0.292;2023-08-06T03:43:14;7.85;;;3.22;;
76208;SDS011;64990;51.698;-0.292;2023-08-06T03:45:40;13.15;;;2.33;;
76208;SDS011;64990;51.698;-0.292;2023-08-06T03:48:07;7.30;;;2.50;;
76208;SDS011;64990;51.698;-0.292;2023-08-06T03:50:33;5.60;;;3.92;;
76208;SDS011;64990;51.698;-0.292;2023-08-06T03:52:59;5.05;;;3.10;;
76208;SDS011;64990;51.698;-0.292;2023-08-06T03:55:25;8.85;;;3.90;;
76208;SDS011;64990;51.698;-0.292;2023-08-06T03:57:51;8.68;;;3.22;;
76208;SDS011;64990;51.698;-0.292;2023-08-06T04:00:17;7.22;;;3.30;;
76208;SDS011;64990;51.698;-0.292;2023-08-06T04:02:43;10.63;;;3.85;;
76208;SDS011;64990;51.698;-0.292;2023-08-06T04:05:09;16.23;;;4.30;;
76208;SDS011;64990;51.698;-0.292;2023-08-06T04:07:35;18.08;;;4.65;;
76208;SDS011;64990;51.698;-0.292;2023-08-06T04:10:02;6.40;;;3.20;;
76208;SDS011;64990;51.698;-0.292;2023-08-06T04:12:28;11.45;;;4.07;;
76208;SDS011;64990;51.698;-0.292;2023-08-06T04:14:55;5.28;;;3.10;;
76208;SDS011;64990;51.698;-0.292;2023-08-06T04:17:21;11.18;;;4.00;;
76208;SDS011;64990;51.698;-0.292;2023-08-06T04:19:51;9.55;;;3.72;;
76208;SDS011;64990;51.698;-0.292;2023-08-06T04:22:18;9.10;;;3.58;;
76208;SDS011;64990;51.698;-0.292;2023-08-06T04:24:44;12.10;;;4.93;;
76208;SDS011;64990;51.698;-0.292;2023-08-06T04:27:10;9.10;;;3.70;;
76208;SDS011;64990;51.698;-0.292;2023-08-06T04:29:36;6.55;;;3.45;;
76208;SDS011;64990;51.698;-0.292;2023-08-06T04:32:06;7.63;;;3.35;;
76208;SDS011;64990;51.698;-0.292;2023-08-06T04:34:33;6.30;;;2.85;;
76208;SDS011;64990;51.698;-0.292;2023-08-06T04:36:59;12.02;;;4.40;;
76208;SDS011;64990;51.698;-0.292;2023-08-06T04:39:25;10.80;;;3.55;;
76208;SDS011;64990;51.698;-0.292;2023-08-06T04:41:51;15.20;;;5.72;;
76208;SDS011;64990;51.698;-0.292;2023-08-06T04:44:17;13.73;;;3.47;;
76208;SDS011;64990;51.698;-0.292;2023-08-06T04:46:45;12.77;;;3.53;;
76208;SDS011;64990;51.698;-0.292;2023-08-06T04:49:11;12.68;;;5.55;;
76208;SDS011;64990;51.698;-0.292;2023-08-06T04:51:37;5.93;;;4.05;;
76208;SDS011;64990;51.698;-0.292;2023-08-06T04:54:03;15.10;;;4.80;;
76208;SDS011;64990;51.698;-0.292;2023-08-06T04:56:29;7.45;;;3.38;;
76208;SDS011;64990;51.698;-0.292;2023-08-06T04:58:57;6.97;;;3.63;;
76208;SDS011;64990;51.698;-0.292;2023-08-06T05:01:23;9.65;;;3.80;;
76208;SDS011;64990;51.698;-0.292;2023-08-06T05:03:49;13.18;;;3.85;;
76208;SDS011;64990;51.698;-0.292;2023-08-06T05:06:14;8.32;;;3.65;;
76208;SDS011;64990;51.698;-0.292;2023-08-06T05:08:46;5.65;;;2.67;;
76208;SDS011;64990;51.698;-0.292;2023-08-06T05:11:12;7.65;;;3.50;;
76208;SDS011;64990;51.698;-0.292;2023-08-06T05:13:38;9.50;;;3.63;;
76208;SDS011;64990;51.698;-0.292;2023-08-06T05:16:04;6.30;;;3.67;;
76208;SDS011;64990;51.698;-0.292;2023-08-06T05:18:30;13.63;;;3.33;;
76208;SDS011;64990;51.698;-0.292;2023-08-06T05:20:56;9.13;;;4.03;;
76208;SDS011;64990;51.698;-0.292;2023-08-06T05:23:22;9.15;;;5.50;;
76208;SDS011;64990;51.698;-0.292;2023-08-06T05:25:48;25.35;;;4.95;;
76208;SDS011;64990;51.698;-0.292;2023-08-06T05:28:14;7.05;;;3.92;;
76208;SDS011;64990;51.698;-0.292;2023-08-06T05:30:41;10.82;;;3.70;;
76208;SDS011;64990;51.698;-0.292;2023-08-06T05:33:07;16.17;;;3.92;;
76208;SDS011;64990;51.698;-0.292;2023-08-06T05:35:33;8.20;;;3.42;;
76208;SDS011;64990;51.698;-0.292;2023-08-06T05:37:59;8.30;;;3.05;;
76208;SDS011;64990;51.698;-0.292;2023-08-06T05:40:25;8.15;;;3.53;;
76208;SDS011;64990;51.698;-0.292;2023-08-06T05:42:53;9.25;;;3.67;;
76208;SDS011;64990;51.698;-0.292;2023-08-06T05:45:19;7.63;;;3.58;;
76208;SDS011;64990;51.698;-0.292;2023-08-06T05:47:45;6.95;;;4.40;;
76208;SDS011;64990;51.698;-0.292;2023-08-06T05:50:13;7.40;;;4.53;;
76208;SDS011;64990;51.698;-0.292;2023-08-06T05:52:39;12.48;;;4.10;;
76208;SDS011;64990;51.698;-0.292;2023-08-06T05:55:05;12.00;;;3.33;;
76208;SDS011;64990;51.698;-0.292;2023-08-06T05:57:31;13.23;;;4.50;;
76208;SDS011;64990;51.698;-0.292;2023-08-06T05:59:57;10.13;;;4.00;;
76208;SDS011;64990;51.698;-0.292;2023-08-06T06:02:23;9.90;;;3.47;;
76208;SDS011;64990;51.698;-0.292;2023-08-06T06:04:49;6.45;;;3.83;;
76208;SDS011;64990;51.698;-0.292;2023-08-06T06:07:15;10.07;;;3.42;;
76208;SDS011;64990;51.698;-0.292;2023-08-06T06:09:41;9.50;;;3.92;;
76208;SDS011;64990;51.698;-0.292;2023-08-06T06:12:07;11.30;;;4.03;;
76208;SDS011;64990;51.698;-0.292;2023-08-06T06:14:33;5.68;;;2.72;;
76208;SDS011;64990;51.698;-0.292;2023-08-06T06:17:00;7.15;;;2.78;;
76208;SDS011;64990;51.698;-0.292;2023-08-06T06:19:26;12.27;;;2.95;;
76208;SDS011;64990;51.698;-0.292;2023-08-06T06:21:52;8.15;;;4.07;;
76208;SDS011;64990;51.698;-0.292;2023-08-06T06:24:18;10.60;;;3.45;;
76208;SDS011;64990;51.698;-0.292;2023-08-06T06:26:44;5.40;;;3.08;;
76208;SDS011;64990;51.698;-0.292;2023-08-06T06:29:10;8.48;;;4.65;;
76208;SDS011;64990;51.698;-0.292;2023-08-06T06:31:36;12.68;;;4.63;;
76208;SDS011;64990;51.698;-0.292;2023-08-06T06:34:02;10.23;;;3.35;;
76208;SDS011;64990;51.698;-0.292;2023-08-06T06:36:28;9.27;;;4.40;;
76208;SDS011;64990;51.698;-0.292;2023-08-06T06:38:54;6.95;;;3.47;;
76208;SDS011;64990;51.698;-0.292;2023-08-06T06:41:20;11.25;;;3.13;;
76208;SDS011;64990;51.698;-0.292;2023-08-06T06:43:46;6.80;;;3.33;;
76208;SDS011;64990;51.698;-0.292;2023-08-06T06:46:12;7.63;;;4.13;;
76208;SDS011;64990;51.698;-0.292;2023-08-06T06:48:39;6.95;;;3.60;;
76208;SDS011;64990;51.698;-0.292;2023-08-06T06:51:05;9.70;;;4.15;;
76208;SDS011;64990;51.698;-0.292;2023-08-06T06:53:31;15.10;;;3.58;;
76208;SDS011;64990;51.698;-0.292;2023-08-06T06:56:03;5.43;;;2.75;;
76208;SDS011;64990;51.698;-0.292;2023-08-06T06:58:32;11.68;;;2.97;;
76208;SDS011;64990;51.698;-0.292;2023-08-06T07:00:58;11.98;;;3.83;;
76208;SDS011;64990;51.698;-0.292;2023-08-06T07:03:24;7.50;;;3.33;;
76208;SDS011;64990;51.698;-0.292;2023-08-06T07:05:50;12.85;;;3.63;;
76208;SDS011;64990;51.698;-0.292;2023-08-06T07:08:16;8.15;;;3.50;;
76208;SDS011;64990;51.698;-0.292;2023-08-06T07:10:43;8.32;;;2.72;;
76208;SDS011;64990;51.698;-0.292;2023-08-06T07:13:09;8.52;;;2.08;;
76208;SDS011;64990;51.698;-0.292;2023-08-06T07:15:35;4.35;;;2.22;;
76208;SDS011;64990;51.698;-0.292;2023-08-06T07:18:01;11.20;;;4.10;;
76208;SDS011;64990;51.698;-0.292;2023-08-06T07:20:27;10.70;;;2.67;;
76208;SDS011;64990;51.698;-0.292;2023-08-06T07:22:58;5.20;;;2.90;;
76208;SDS011;64990;51.698;-0.292;2023-08-06T07:25:24;5.80;;;3.50;;
76208;SDS011;64990;51.698;-0.292;2023-08-06T07:27:50;5.57;;;3.55;;
76208;SDS011;64990;51.698;-0.292;2023-08-06T07:30:16;4.70;;;2.83;;
76208;SDS011;64990;51.698;-0.292;2023-08-06T07:32:42;6.82;;;2.78;;
76208;SDS011;64990;51.698;-0.292;2023-08-06T07:35:08;4.13;;;2.58;;
76208;SDS011;64990;51.698;-0.292;2023-08-06T07:37:37;5.03;;;2.88;;
76208;SDS011;64990;51.698;-0.292;2023-08-06T07:40:04;6.75;;;2.67;;
76208;SDS011;64990;51.698;-0.292;2023-08-06T07:42:30;8.45;;;3.45;;
76208;SDS011;64990;51.698;-0.292;2023-08-06T07:44:57;7.18;;;2.70;;
76208;SDS011;64990;51.698;-0.292;2023-08-06T07:47:23;9.32;;;3.00;;
76208;SDS011;64990;51.698;-0.292;2023-08-06T07:49:49;4.25;;;2.13;;
76208;SDS011;64990;51.698;-0.292;2023-08-06T07:52:16;5.40;;;3.35;;
76208;SDS011;64990;51.698;-0.292;2023-08-06T07:54:42;6.43;;;2.40;;
76208;SDS011;64990;51.698;-0.292;2023-08-06T07:57:08;8.07;;;2.78;;
76208;SDS011;64990;51.698;-0.292;2023-08-06T07:59:34;8.82;;;2.28;;
76208;SDS011;64990;51.698;-0.292;2023-08-06T08:02:00;4.03;;;1.98;;
76208;SDS011;64990;51.698;-0.292;2023-08-06T08:04:26;3.25;;;2.35;;
76208;SDS011;64990;51.698;-0.292;2023-08-06T08:06:52;6.05;;;2.80;;
76208;SDS011;64990;51.698;-0.292;2023-08-06T08:09:18;9.77;;;2.28;;
76208;SDS011;64990;51.698;-0.292;2023-08-06T08:11:44;9.43;;;2.95;;
76208;SDS011;64990;51.698;-0.292;2023-08-06T08:14:10;5.30;;;1.75;;
76208;SDS011;64990;51.698;-0.292;2023-08-06T08:16:36;8.15;;;1.98;;
76208;SDS011;64990;51.698;-0.292;2023-08-06T08:19:02;2.92;;;2.05;;
76208;SDS011;64990;51.698;-0.292;2023-08-06T08:21:29;4.22;;;1.30;;
76208;SDS011;64990;51.698;-0.292;2023-08-06T08:23:55;13.63;;;2.75;;
76208;SDS011;64990;51.698;-0.292;2023-08-06T08:26:21;2.47;;;1.48;;
76208;SDS011;64990;51.698;-0.292;2023-08-06T08:28:48;2.13;;;1.58;;
76208;SDS011;64990;51.698;-0.292;2023-08-06T08:31:14;1.75;;;1.45;;
76208;SDS011;64990;51.698;-0.292;2023-08-06T08:33:41;5.25;;;1.95;;
76208;SDS011;64990;51.698;-0.292;2023-08-06T08:36:07;1.50;;;1.27;;
76208;SDS011;64990;51.698;-0.292;2023-08-06T08:38:34;4.38;;;2.03;;
76208;SDS011;64990;51.698;-0.292;2023-08-06T08:41:00;5.35;;;2.03;;
76208;SDS011;64990;51.698;-0.292;2023-08-06T08:43:27;6.82;;;1.52;;
76208;SDS011;64990;51.698;-0.292;2023-08-06T08:45:53;9.32;;;2.15;;
76208;SDS011;64990;51.698;-0.292;2023-08-06T08:48:26;3.90;;;1.75;;
76208;SDS011;64990;51.698;-0.292;2023-08-06T08:50:52;1.63;;;1.20;;
76208;SDS011;64990;51.698;-0.292;2023-08-06T08:53:18;4.93;;;1.30;;
76208;SDS011;64990;51.698;-0.292;2023-08-06T08:55:48;5.20;;;2.30;;
76208;SDS011;64990;51.698;-0.292;2023-08-06T08:58:15;5.40;;;2.33;;
76208;SDS011;64990;51.698;-0.292;2023-08-06T09:00:41;2.75;;;1.38;;
76208;SDS011;64990;51.698;-0.292;2023-08-06T09:03:08;1.73;;;1.13;;
76208;SDS011;64990;51.698;-0.292;2023-08-06T09:05:34;4.72;;;1.88;;
76208;SDS011;64990;51.698;-0.292;2023-08-06T09:08:02;3.20;;;1.70;;
76208;SDS011;64990;51.698;-0.292;2023-08-06T09:10:28;3.60;;;1.35;;
76208;SDS011;64990;51.698;-0.292;2023-08-06T09:12:55;2.08;;;1.33;;
76208;SDS011;64990;51.698;-0.292;2023-08-06T09:15:25;3.63;;;1.83;;
76208;SDS011;64990;51.698;-0.292;2023-08-06T09:17:54;2.05;;;1.10;;
76208;SDS011;64990;51.698;-0.292;2023-08-06T09:20:20;5.00;;;1.10;;
76208;SDS011;64990;51.698;-0.292;2023-08-06T09:22:46;2.63;;;1.33;;
76208;SDS011;64990;51.698;-0.292;2023-08-06T09:25:20;4.88;;;1.45;;
76208;SDS011;64990;51.698;-0.292;2023-08-06T09:27:48;3.25;;;1.60;;
76208;SDS011;64990;51.698;-0.292;2023-08-06T09:30:19;4.20;;;1.27;;
76208;SDS011;64990;51.698;-0.292;2023-08-06T09:32:54;5.72;;;2.08;;
76208;SDS011;64990;51.698;-0.292;2023-08-06T09:35:21;2.58;;;1.25;;
76208;SDS011;64990;51.698;-0.292;2023-08-06T09:37:47;1.77;;;1.10;;
76208;SDS011;64990;51.698;-0.292;2023-08-06T09:40:31;3.58;;;2.33;;
76208;SDS011;64990;51.698;-0.292;2023-08-06T09:42:58;3.53;;;2.03;;
76208;SDS011;64990;51.698;-0.292;2023-08-06T09:45:33;2.50;;;1.67;;
76208;SDS011;64990;51.698;-0.292;2023-08-06T09:48:06;1.58;;;1.13;;
76208;SDS011;64990;51.698;-0.292;2023-08-06T09:50:33;2.42;;;1.52;;
76208;SDS011;64990;51.698;-0.292;2023-08-06T09:53:03;6.47;;;1.80;;
76208;SDS011;64990;51.698;-0.292;2023-08-06T09:55:29;1.13;;;1.02;;
76208;SDS011;64990;51.698;-0.292;2023-08-06T09:57:56;3.22;;;1.80;;
76208;SDS011;64990;51.698;-0.292;2023-08-06T10:00:22;3.75;;;2.03;;
76208;SDS011;64990;51.698;-0.292;2023-08-06T10:02:49;3.55;;;2.53;;
76208;SDS011;64990;51.698;-0.292;2023-08-06T10:05:16;1.88;;;1.27;;
76208;SDS011;64990;51.698;-0.292;2023-08-06T10:07:43;3.80;;;1.48;;
76208;SDS011;64990;51.698;-0.292;2023-08-06T10:10:10;1.88;;;1.23;;
76208;SDS011;64990;51.698;-0.292;2023-08-06T10:12:37;8.57;;;1.30;;
76208;SDS011;64990;51.698;-0.292;2023-08-06T10:15:05;7.30;;;2.00;;
76208;SDS011;64990;51.698;-0.292;2023-08-06T10:17:32;2.13;;;1.30;;
76208;SDS011;64990;51.698;-0.292;2023-08-06T10:19:59;1.98;;;1.60;;
76208;SDS011;64990;51.698;-0.292;2023-08-06T10:22:25;4.88;;;1.95;;
76208;SDS011;64990;51.698;-0.292;2023-08-06T10:24:56;6.13;;;2.63;;
76208;SDS011;64990;51.698;-0.292;2023-08-06T10:29:56;4.85;;;1.60;;
76208;SDS011;64990;51.698;-0.292;2023-08-06T10:32:25;4.55;;;2.22;;
76208;SDS011;64990;51.698;-0.292;2023-08-06T10:35:09;1.73;;;1.17;;
76208;SDS011;64990;51.698;-0.292;2023-08-06T10:37:53;2.55;;;1.15;;
76208;SDS011;64990;51.698;-0.292;2023-08-06T10:40:22;2.47;;;1.52;;
76208;SDS011;64990;51.698;-0.292;2023-08-06T10:42:49;6.65;;;1.63;;
76208;SDS011;64990;51.698;-0.292;2023-08-06T10:45:18;9.95;;;1.55;;
76208;SDS011;64990;51.698;-0.292;2023-08-06T10:47:44;3.33;;;1.60;;
76208;SDS011;64990;51.698;-0.292;2023-08-06T10:50:15;4.90;;;1.40;;
76208;SDS011;64990;51.698;-0.292;2023-08-06T10:52:44;5.20;;;1.58;;
76208;SDS011;64990;51.698;-0.292;2023-08-06T10:55:10;2.65;;;1.50;;
76208;SDS011;64990;51.698;-0.292;2023-08-06T10:57:36;3.65;;;1.80;;
76208;SDS011;64990;51.698;-0.292;2023-08-06T11:00:04;3.80;;;1.95;;
76208;SDS011;64990;51.698;-0.292;2023-08-06T11:02:33;7.30;;;2.40;;
76208;SDS011;64990;51.698;-0.292;2023-08-06T11:05:04;3.60;;;1.42;;
76208;SDS011;64990;51.698;-0.292;2023-08-06T11:07:30;2.70;;;1.63;;
76208;SDS011;64990;51.698;-0.292;2023-08-06T11:10:06;3.50;;;1.73;;
76208;SDS011;64990;51.698;-0.292;2023-08-06T11:12:33;4.18;;;1.83;;
76208;SDS011;64990;51.698;-0.292;2023-08-06T11:14:59;1.73;;;1.13;;
76208;SDS011;64990;51.698;-0.292;2023-08-06T11:17:26;5.78;;;1.63;;
76208;SDS011;64990;51.698;-0.292;2023-08-06T11:19:52;5.15;;;1.42;;
76208;SDS011;64990;51.698;-0.292;2023-08-06T11:22:20;2.60;;;1.65;;
76208;SDS011;64990;51.698;-0.292;2023-08-06T11:24:46;2.90;;;1.90;;
76208;SDS011;64990;51.698;-0.292;2023-08-06T11:27:15;8.55;;;2.17;;
76208;SDS011;64990;51.698;-0.292;2023-08-06T11:29:41;6.90;;;2.40;;
76208;SDS011;64990;51.698;-0.292;2023-08-06T11:32:08;4.07;;;1.80;;
76208;SDS011;64990;51.698;-0.292;2023-08-06T11:34:34;3.28;;;1.40;;
76208;SDS011;64990;51.698;-0.292;2023-08-06T11:37:02;1.20;;;1.05;;
76208;SDS011;64990;51.698;-0.292;2023-08-06T11:39:30;2.17;;;1.77;;
76208;SDS011;64990;51.698;-0.292;2023-08-06T11:41:56;3.20;;;1.88;;
76208;SDS011;64990;51.698;-0.292;2023-08-06T11:44:25;1.77;;;1.42;;
76208;SDS011;64990;51.698;-0.292;2023-08-06T11:46:54;4.32;;;1.90;;
76208;SDS011;64990;51.698;-0.292;2023-08-06T11:52:24;3.13;;;2.00;;
76208;SDS011;64990;51.698;-0.292;2023-08-06T11:55:00;3.08;;;2.38;;
76208;SDS011;64990;51.698;-0.292;2023-08-06T11:57:33;2.40;;;1.58;;
76208;SDS011;64990;51.698;-0.292;2023-08-06T12:00:03;5.80;;;2.63;;
76208;SDS011;64990;51.698;-0.292;2023-08-06T12:02:33;4.28;;;1.60;;
76208;SDS011;64990;51.698;-0.292;2023-08-06T12:05:10;3.33;;;2.03;;
76208;SDS011;64990;51.698;-0.292;2023-08-06T12:07:37;6.15;;;2.55;;
76208;SDS011;64990;51.698;-0.292;2023-08-06T12:10:04;3.35;;;1.75;;
76208;SDS011;64990;51.698;-0.292;2023-08-06T12:12:30;4.63;;;2.42;;
76208;SDS011;64990;51.698;-0.292;2023-08-06T12:14:57;3.35;;;1.52;;
76208;SDS011;64990;51.698;-0.292;2023-08-06T12:17:23;6.70;;;2.15;;
76208;SDS011;64990;51.698;-0.292;2023-08-06T12:19:49;5.63;;;1.70;;
76208;SDS011;64990;51.698;-0.292;2023-08-06T12:22:16;3.03;;;1.83;;
76208;SDS011;64990;51.698;-0.292;2023-08-06T12:24:42;10.30;;;1.67;;
76208;SDS011;64990;51.698;-0.292;2023-08-06T12:27:09;3.53;;;1.75;;
76208;SDS011;64990;51.698;-0.292;2023-08-06T12:29:35;5.03;;;1.40;;
76208;SDS011;64990;51.698;-0.292;2023-08-06T12:32:01;2.55;;;1.77;;
76208;SDS011;64990;51.698;-0.292;2023-08-06T12:34:28;6.85;;;2.65;;
76208;SDS011;64990;51.698;-0.292;2023-08-06T12:36:54;3.45;;;1.70;;
76208;SDS011;64990;51.698;-0.292;2023-08-06T12:39:20;4.65;;;1.90;;
76208;SDS011;64990;51.698;-0.292;2023-08-06T12:41:46;3.25;;;1.80;;
76208;SDS011;64990;51.698;-0.292;2023-08-06T12:44:12;5.63;;;2.10;;
76208;SDS011;64990;51.698;-0.292;2023-08-06T12:46:38;6.00;;;2.28;;
76208;SDS011;64990;51.698;-0.292;2023-08-06T12:49:04;2.55;;;1.50;;
76208;SDS011;64990;51.698;-0.292;2023-08-06T12:51:30;5.30;;;2.50;;
76208;SDS011;64990;51.698;-0.292;2023-08-06T12:53:58;5.38;;;2.35;;
76208;SDS011;64990;51.698;-0.292;2023-08-06T12:56:24;4.55;;;1.80;;
76208;SDS011;64990;51.698;-0.292;2023-08-06T12:58:50;2.42;;;1.80;;
76208;SDS011;64990;51.698;-0.292;2023-08-06T13:01:16;2.25;;;1.50;;
76208;SDS011;64990;51.698;-0.292;2023-08-06T13:03:42;4.93;;;1.65;;
76208;SDS011;64990;51.698;-0.292;2023-08-06T13:06:08;2.63;;;1.95;;
76208;SDS011;64990;51.698;-0.292;2023-08-06T13:08:35;4.43;;;1.40;;
76208;SDS011;64990;51.698;-0.292;2023-08-06T13:11:01;3.00;;;1.17;;
76208;SDS011;64990;51.698;-0.292;2023-08-06T13:13:27;2.15;;;1.38;;
76208;SDS011;64990;51.698;-0.292;2023-08-06T13:15:53;1.33;;;1.23;;
76208;SDS011;64990;51.698;-0.292;2023-08-06T13:18:19;4.18;;;1.63;;
76208;SDS011;64990;51.698;-0.292;2023-08-06T13:20:45;1.30;;;1.10;;
76208;SDS011;64990;51.698;-0.292;2023-08-06T13:23:13;1.95;;;1.42;;
76208;SDS011;64990;51.698;-0.292;2023-08-06T13:25:41;1.90;;;1.17;;
76208;SDS011;64990;51.698;-0.292;2023-08-06T13:28:07;2.10;;;1.10;;
76208;SDS011;64990;51.698;-0.292;2023-08-06T13:30:34;5.95;;;1.95;;
76208;SDS011;64990;51.698;-0.292;2023-08-06T13:33:06;2.28;;;0.90;;
76208;SDS011;64990;51.698;-0.292;2023-08-06T13:35:32;2.35;;;1.15;;
76208;SDS011;64990;51.698;-0.292;2023-08-06T13:37:58;2.85;;;1.50;;
76208;SDS011;64990;51.698;-0.292;2023-08-06T13:40:24;3.05;;;0.82;;
76208;SDS011;64990;51.698;-0.292;2023-08-06T13:42:50;4.82;;;1.38;;
76208;SDS011;64990;51.698;-0.292;2023-08-06T13:45:16;5.68;;;1.48;;
76208;SDS011;64990;51.698;-0.292;2023-08-06T13:47:42;3.40;;;1.92;;
76208;SDS011;64990;51.698;-0.292;2023-08-06T13:50:09;3.85;;;1.73;;
76208;SDS011;64990;51.698;-0.292;2023-08-06T13:52:35;1.05;;;0.82;;
76208;SDS011;64990;51.698;-0.292;2023-08-06T13:55:01;1.55;;;1.17;;
76208;SDS011;64990;51.698;-0.292;2023-08-06T13:57:29;1.65;;;1.02;;
76208;SDS011;64990;51.698;-0.292;2023-08-06T13:59:55;1.70;;;0.70;;
76208;SDS011;64990;51.698;-0.292;2023-08-06T14:02:22;0.80;;;0.80;;
76208;SDS011;64990;51.698;-0.292;2023-08-06T14:04:48;1.15;;;0.63;;
76208;SDS011;64990;51.698;-0.292;2023-08-06T14:07:14;0.88;;;0.73;;
76208;SDS011;64990;51.698;-0.292;2023-08-06T14:09:40;1.30;;;1.02;;
76208;SDS011;64990;51.698;-0.292;2023-08-06T14:12:07;1.45;;;0.88;;
76208;SDS011;64990;51.698;-0.292;2023-08-06T14:14:33;4.30;;;0.80;;
76208;SDS011;64990;51.698;-0.292;2023-08-06T14:16:59;1.00;;;0.88;;
76208;SDS011;64990;51.698;-0.292;2023-08-06T14:19:25;1.13;;;0.90;;
76208;SDS011;64990;51.698;-0.292;2023-08-06T14:21:51;2.28;;;1.00;;
76208;SDS011;64990;51.698;-0.292;2023-08-06T14:24:18;2.40;;;0.80;;
76208;SDS011;64990;51.698;-0.292;2023-08-06T14:26:44;5.88;;;0.95;;
76208;SDS011;64990;51.698;-0.292;2023-08-06T14:29:10;3.13;;;1.38;;
76208;SDS011;64990;51.698;-0.292;2023-08-06T14:31:36;2.03;;;0.80;;
76208;SDS011;64990;51.698;-0.292;2023-08-06T14:34:01;1.13;;;0.70;;
76208;SDS011;64990;51.698;-0.292;2023-08-06T14:36:27;3.13;;;1.10;;
76208;SDS011;64990;51.698;-0.292;2023-08-06T14:38:53;6.05;;;1.55;;
76208;SDS011;64990;51.698;-0.292;2023-08-06T14:41:19;1.05;;;0.93;;